createdAt,value
2023-05-24T00:01:14.345Z,30.67
2023-05-24T00:06:17.212Z,31.33
2023-05-24T00:11:19.505Z,28.00
2023-05-24T00:16:21.387Z,29.33
2023-05-24T00:21:23.174Z,27.33
2023-05-24T00:26:24.956Z,31.67
2023-05-24T00:31:30.917Z,31.00
2023-05-24T00:36:33.234Z,29.00
2023-05-24T00:41:35.237Z,31.50
2023-05-24T00:46:37.976Z,31.00
2023-05-24T00:51:40.271Z,28.00
2023-05-24T00:56:45.156Z,29.67
2023-05-24T01:01:47.192Z,26.67
2023-05-24T01:07:10.989Z,28.67
2023-05-24T01:12:31.291Z,27.00
2023-05-24T01:17:42.803Z,26.50
2023-05-24T01:23:04.913Z,30.75
2023-05-24T01:28:09.009Z,25.75
2023-05-24T01:33:10.995Z,29.75
2023-05-24T01:38:16.153Z,29.50
2023-05-24T01:43:41.364Z,27.25
2023-05-24T01:49:03.365Z,27.25
2023-05-24T01:54:06.951Z,25.25
2023-05-24T01:59:09.801Z,29.00
2023-05-24T02:04:11.694Z,26.67
2023-05-24T02:09:13.558Z,24.00
2023-05-24T02:14:17.295Z,29.00
2023-05-24T02:19:19.131Z,28.33
2023-05-24T02:24:20.951Z,23.67
2023-05-24T02:29:23.201Z,23.33
2023-05-24T02:34:25.626Z,23.67
2023-05-24T02:39:27.734Z,22.67
2023-05-24T02:44:29.518Z,24.00
2023-05-24T02:49:31.334Z,20.33
2023-05-24T02:54:33.445Z,19.67
2023-05-24T02:59:36.264Z,20.00
2023-05-24T03:04:38.162Z,22.33
2023-05-24T03:09:41.054Z,24.67
2023-05-24T03:14:43.006Z,24.67
2023-05-24T03:19:45.229Z,26.33
2023-05-24T03:24:48.852Z,20.75
2023-05-24T03:29:51.724Z,21.00
2023-05-24T03:34:59.439Z,23.25
2023-05-24T03:40:01.898Z,19.00
2023-05-24T03:45:24.074Z,18.00
2023-05-24T03:50:32.726Z,25.00
2023-05-24T03:55:34.577Z,23.75
2023-05-24T04:00:36.494Z,25.25
2023-05-24T04:05:38.454Z,22.00
2023-05-24T04:10:41.458Z,20.33
2023-05-24T04:15:46.248Z,20.33
2023-05-24T04:20:48.106Z,24.00
2023-05-24T04:25:50.195Z,22.00
2023-05-24T04:30:52.321Z,23.67
2023-05-24T04:35:54.168Z,22.50
2023-05-24T04:41:02.049Z,22.33
2023-05-24T04:46:04.093Z,22.00
2023-05-24T04:51:06.079Z,22.00
2023-05-24T04:56:07.993Z,23.67
2023-05-24T05:01:09.827Z,22.67
2023-05-24T05:06:12.259Z,21.33
2023-05-24T05:11:14.683Z,21.00
2023-05-24T05:16:16.534Z,23.00
2023-05-24T05:21:18.841Z,21.67
2023-05-24T05:26:21.592Z,19.67
2023-05-24T05:31:24.247Z,21.33
2023-05-24T05:36:26.066Z,17.67
2023-05-24T05:41:28.088Z,21.33
2023-05-24T05:46:29.986Z,19.33
2023-05-24T05:51:32.116Z,23.67
2023-05-24T05:56:35.890Z,24.33
2023-05-24T06:01:38.044Z,23.67
2023-05-24T06:06:39.967Z,20.33
2023-05-24T06:11:44.842Z,25.33
2023-05-24T06:16:48.194Z,22.00
2023-05-24T06:21:50.770Z,26.00
2023-05-24T06:26:53.162Z,24.00
2023-05-24T06:31:54.936Z,20.33
2023-05-24T06:36:56.867Z,23.67
2023-05-24T06:41:58.743Z,24.67
2023-05-24T06:47:02.152Z,24.33
2023-05-24T06:52:04.318Z,25.00
2023-05-24T06:57:06.219Z,27.50
2023-05-24T07:02:08.879Z,24.00
2023-05-24T07:07:13.144Z,24.33
2023-05-24T07:12:15.157Z,28.33
2023-05-24T07:17:17.121Z,26.33
2023-05-24T07:22:19.011Z,24.67
2023-05-24T07:27:21.014Z,24.33
2023-05-24T07:32:23.186Z,23.67
2023-05-24T07:37:25.149Z,25.33
2023-05-24T07:42:26.955Z,29.33
2023-05-24T07:47:28.887Z,24.33
2023-05-24T07:52:31.377Z,26.00
2023-05-24T07:57:33.638Z,28.00
2023-05-24T08:02:35.715Z,25.33
2023-05-24T08:07:37.682Z,28.33
2023-05-24T08:12:40.095Z,33.00
2023-05-24T08:17:41.936Z,30.33
2023-05-24T08:22:44.003Z,30.00
2023-05-24T08:27:46.123Z,31.75
2023-05-24T08:32:48.030Z,25.33
2023-05-24T08:37:50.474Z,28.33
2023-05-24T08:42:52.895Z,28.33
2023-05-24T08:47:56.090Z,28.67
2023-05-24T08:52:59.355Z,27.00
2023-05-24T08:58:01.408Z,29.33
2023-05-24T09:03:05.747Z,29.00
2023-05-24T09:08:09.712Z,29.25
2023-05-24T09:13:13.507Z,24.33
2023-05-24T09:18:15.414Z,26.67
2023-05-24T09:23:17.741Z,25.33
2023-05-24T09:28:21.735Z,28.00
2023-05-24T09:33:23.666Z,26.67
2023-05-24T09:38:26.324Z,27.00
2023-05-24T09:43:30.379Z,23.33
2023-05-24T09:48:32.291Z,28.00
2023-05-24T09:53:35.818Z,22.67
2023-05-24T09:58:37.723Z,29.67
2023-05-24T10:03:39.776Z,30.33
2023-05-24T10:08:42.618Z,29.50
2023-05-24T10:13:44.815Z,27.00
2023-05-24T10:18:46.660Z,24.00
2023-05-24T10:23:52.751Z,30.25
2023-05-24T10:29:01.100Z,33.00
2023-05-24T10:34:08.474Z,31.00
2023-05-24T10:39:13.924Z,31.75
2023-05-24T10:44:19.440Z,31.50
2023-05-24T10:49:22.640Z,31.50
2023-05-24T10:54:27.289Z,32.25
2023-05-24T10:59:31.443Z,28.00
2023-05-24T11:04:37.813Z,40.50
2023-05-24T11:09:46.886Z,35.75
2023-05-24T11:14:53.046Z,27.67
2023-05-24T11:19:55.590Z,32.00
2023-05-24T11:25:00.128Z,21.00
2023-05-24T11:30:04.375Z,27.33
2023-05-24T11:35:08.951Z,30.00
2023-05-24T11:40:11.785Z,23.00
2023-05-24T11:45:15.641Z,30.67
2023-05-24T11:50:25.314Z,23.33
2023-05-24T11:55:28.561Z,25.67
2023-05-24T12:00:30.721Z,28.33
2023-05-24T12:05:32.595Z,21.00
2023-05-24T12:10:35.723Z,24.67
2023-05-24T12:15:37.544Z,22.33
2023-05-24T12:20:39.499Z,25.00
2023-05-24T12:25:41.517Z,19.67
2023-05-24T12:30:45.023Z,19.67
2023-05-24T12:35:48.634Z,23.00
2023-05-24T12:41:03.743Z,23.67
2023-05-24T12:46:13.226Z,19.33
2023-05-24T12:51:15.071Z,23.33
2023-05-24T12:56:17.134Z,19.00
2023-05-24T13:01:19.126Z,21.00
2023-05-24T13:06:21.624Z,17.67
2023-05-24T13:11:25.240Z,18.00
2023-05-24T13:16:27.140Z,15.33
2023-05-24T13:21:29.423Z,19.67
2023-05-24T13:26:33.715Z,18.00
2023-05-24T13:31:37.673Z,22.00
2023-05-24T13:36:40.328Z,17.33
2023-05-24T13:41:43.247Z,18.00
2023-05-24T13:46:45.610Z,20.00
2023-05-24T13:51:47.463Z,16.67
2023-05-24T13:56:49.668Z,16.67
2023-05-24T14:01:51.599Z,17.00
2023-05-24T14:06:53.512Z,17.67
2023-05-24T14:11:55.452Z,13.67
2023-05-24T14:16:57.486Z,14.00
2023-05-24T14:21:59.362Z,16.33
2023-05-24T14:27:01.787Z,25.00
2023-05-24T14:32:03.880Z,13.33
2023-05-24T14:37:06.428Z,15.33
2023-05-24T14:42:08.365Z,14.67
2023-05-24T14:47:10.143Z,14.33
2023-05-24T14:52:11.938Z,13.00
2023-05-24T14:57:13.738Z,14.67
2023-05-24T15:02:15.745Z,14.67
2023-05-24T15:07:17.705Z,10.67
2023-05-24T15:12:19.656Z,14.67
2023-05-24T15:17:22.078Z,13.00
2023-05-24T15:22:24.218Z,11.67
2023-05-24T15:27:27.518Z,13.67
2023-05-24T15:32:29.557Z,13.67
2023-05-24T15:37:31.516Z,15.33
2023-05-24T15:42:33.352Z,13.67
2023-05-24T15:47:39.567Z,13.00
2023-05-24T15:52:42.000Z,14.00
2023-05-24T15:57:43.858Z,17.00
2023-05-24T16:02:45.754Z,16.33
2023-05-24T16:07:47.604Z,16.67
2023-05-24T16:12:49.493Z,15.00
2023-05-24T16:17:51.456Z,14.00
2023-05-24T16:22:54.060Z,13.00
2023-05-24T16:27:56.396Z,8.33
2023-05-24T16:32:58.546Z,11.33
2023-05-24T16:38:00.490Z,12.33
2023-05-24T16:43:02.372Z,15.33
2023-05-24T16:48:04.298Z,14.00
2023-05-24T16:53:06.705Z,12.67
2023-05-24T16:58:08.730Z,11.00
2023-05-24T17:03:10.696Z,15.00
2023-05-24T17:08:12.547Z,14.00
2023-05-24T17:13:14.467Z,11.00
2023-05-24T17:18:16.385Z,13.33
2023-05-24T17:23:20.376Z,9.33
2023-05-24T17:28:29.633Z,13.00
2023-05-24T17:33:32.165Z,11.67
2023-05-24T17:38:34.200Z,11.33
2023-05-24T17:43:39.088Z,12.33
2023-05-24T17:48:42.699Z,10.00
2023-05-24T17:53:44.894Z,12.67
2023-05-24T17:58:47.718Z,12.00
2023-05-24T18:03:49.710Z,14.33
2023-05-24T18:08:51.524Z,14.00
2023-05-24T18:13:53.464Z,14.00
2023-05-24T18:18:55.259Z,13.33
2023-05-24T18:23:57.114Z,14.00
2023-05-24T18:28:58.931Z,14.67
2023-05-24T18:34:01.921Z,17.33
2023-05-24T18:39:04.219Z,14.67
2023-05-24T18:44:06.029Z,12.67
2023-05-24T18:49:10.943Z,11.67
2023-05-24T18:54:13.796Z,14.00
2023-05-24T18:59:16.809Z,13.33
2023-05-24T19:04:19.773Z,11.67
2023-05-24T19:09:21.885Z,17.00
2023-05-24T19:14:23.698Z,15.33
2023-05-24T19:19:25.539Z,18.00
2023-05-24T19:24:27.399Z,17.33
2023-05-24T19:29:29.236Z,17.00
2023-05-24T19:34:32.028Z,14.67
2023-05-24T19:39:33.828Z,17.00
2023-05-24T19:44:35.640Z,14.00
2023-05-24T19:49:37.411Z,13.50
2023-05-24T19:54:41.190Z,15.67
2023-05-24T19:59:43.026Z,15.67
2023-05-24T20:04:44.825Z,15.33
2023-05-24T20:09:46.683Z,16.33
2023-05-24T20:14:51.090Z,17.00
2023-05-24T20:19:52.954Z,16.00
2023-05-24T20:24:54.884Z,19.25
2023-05-24T20:29:56.765Z,19.25
2023-05-24T20:34:58.648Z,15.50
2023-05-24T20:40:00.476Z,17.33
2023-05-24T20:45:03.353Z,15.00
2023-05-24T20:50:07.950Z,16.75
2023-05-24T20:55:09.968Z,16.00
2023-05-24T21:00:12.416Z,18.00
2023-05-24T21:05:14.425Z,18.33
2023-05-24T21:10:20.557Z,19.25
2023-05-24T21:15:22.387Z,15.67
2023-05-24T21:20:24.321Z,17.75
2023-05-24T21:25:26.179Z,13.00
2023-05-24T21:30:29.941Z,16.25
2023-05-24T21:35:32.623Z,15.50
2023-05-24T21:40:34.535Z,23.25
2023-05-24T21:45:36.349Z,17.25
2023-05-24T21:50:38.123Z,19.75
2023-05-24T21:55:39.872Z,16.25
2023-05-24T22:00:41.956Z,16.50
2023-05-24T22:05:44.121Z,18.75
2023-05-24T22:10:46.350Z,18.75
2023-05-24T22:15:48.301Z,19.50
2023-05-24T22:20:50.923Z,17.75
2023-05-24T22:25:52.815Z,17.75
2023-05-24T22:30:54.685Z,19.25
2023-05-24T22:35:56.759Z,18.25
2023-05-24T22:40:58.589Z,17.50
2023-05-24T22:46:00.498Z,18.50
2023-05-24T22:51:02.435Z,20.00
2023-05-24T22:56:04.415Z,23.75
2023-05-24T23:01:06.815Z,22.25
2023-05-24T23:06:11.903Z,22.25
2023-05-24T23:11:17.309Z,20.25
2023-05-24T23:16:19.177Z,23.25
2023-05-24T23:21:22.461Z,20.50
2023-05-24T23:26:24.263Z,21.75
2023-05-24T23:31:26.169Z,23.00
2023-05-24T23:36:28.246Z,25.00
2023-05-24T23:41:30.052Z,23.50
2023-05-24T23:46:32.023Z,24.75
2023-05-24T23:51:33.996Z,21.25
2023-05-24T23:56:36.930Z,26.25
